Time;durP1;ratioP1;P1;durP2;ratioP2;P2;SDS_P1;SDS_P2;PMS_P1;PMS_P2;Temp;Humidity;BMP_temperature;BMP_pressure;BME280_temperature;BME280_humidity;BME280_pressure;Samples;Min_cycle;Max_cycle;Signal;HPM_P1;HPM_P2
2021/11/17 02:28:00;;;;;;;52.45;20.38;;;;;;;7.41;86.57;102051.88;5041857;28;20068;-66
2021/11/17 02:30:55;;;;;;;51.55;21.23;;;;;;;7.42;85.86;102056.25;5042543;28;20096;-64
2021/11/17 02:33:29;;;;;;;47.25;19.50;;;;;;;7.36;86.75;102056.06;5042003;28;20036;-67
2021/11/17 02:36:22;;;;;;;46.67;20.02;;;;;;;7.37;86.78;102055.22;5029874;28;20038;-65
2021/11/17 02:38:59;;;;;;;50.83;21.17;;;;;;;7.37;86.48;102055.22;5043207;28;20489;-65
2021/11/17 02:41:58;;;;;;;52.35;20.60;;;;;;;7.37;86.68;102053.53;5041429;28;20065;-65
2021/11/17 02:44:41;;;;;;;49.65;20.58;;;;;;;7.39;86.67;102050.91;5040444;28;20053;-64
2021/11/17 02:47:19;;;;;;;47.38;20.60;;;;;;;7.39;86.36;102054.44;5043264;28;20107;-64
2021/11/17 02:50:08;;;;;;;49.55;21.60;;;;;;;7.40;86.44;102044.88;5042924;28;20037;-65
2021/11/17 02:52:52;;;;;;;57.67;22.65;;;;;;;7.40;86.89;102045.75;5043820;28;20052;-64
2021/11/17 02:55:47;;;;;;;54.38;21.45;;;;;;;7.39;86.43;102049.22;5042639;28;20474;-64
2021/11/17 02:58:39;;;;;;;50.00;20.48;;;;;;;7.40;87.28;102048.38;5042097;28;20029;-64
2021/11/17 03:01:33;;;;;;;52.08;21.75;;;;;;;7.41;87.23;102041.44;5041590;28;20045;-65
2021/11/17 03:04:24;;;;;;;55.75;22.20;;;;;;;7.42;86.87;102040.56;5033664;28;20038;-64
2021/11/17 03:07:26;;;;;;;52.08;20.25;;;;;;;7.45;87.20;102030.22;5041795;28;20030;-64
2021/11/17 03:09:54;;;;;;;51.13;21.67;;;;;;;7.47;86.46;102027.66;5045205;28;20037;-65
2021/11/17 03:12:48;;;;;;;51.28;21.52;;;;;;;7.42;86.78;102030.09;5047208;28;20089;-65
2021/11/17 03:15:40;;;;;;;54.28;22.40;;;;;;;7.38;87.00;102023.91;5041495;28;20045;-65
2021/11/17 03:18:11;;;;;;;48.67;20.98;;;;;;;7.40;87.46;102023.94;5045871;28;20099;-65
2021/11/17 03:20:49;;;;;;;53.22;21.13;;;;;;;7.42;87.21;102023.13;5046814;28;20026;-65
2021/11/17 03:23:35;;;;;;;55.55;21.63;;;;;;;7.43;87.13;102018.81;5047863;28;20037;-65
2021/11/17 03:26:01;;;;;;;51.85;22.00;;;;;;;7.44;87.07;102015.34;5044809;28;20075;-65
2021/11/17 03:28:41;;;;;;;51.50;21.67;;;;;;;7.42;87.13;102003.97;5047297;28;20049;-65
2021/11/17 03:31:25;;;;;;;53.28;20.92;;;;;;;7.41;87.64;102004.81;5040873;28;20041;-65
2021/11/17 03:34:11;;;;;;;55.47;21.58;;;;;;;7.45;87.51;102004.06;5046548;28;20033;-64
2021/11/17 03:36:39;;;;;;;52.92;22.38;;;;;;;7.46;87.45;101989.25;5044411;28;20513;-64
2021/11/17 03:39:27;;;;;;;55.13;22.23;;;;;;;7.49;87.97;101994.59;5042364;28;20083;-64
2021/11/17 03:42:05;;;;;;;47.70;20.90;;;;;;;7.53;87.69;101994.69;5047392;28;20029;-65
2021/11/17 03:44:56;;;;;;;51.00;20.65;;;;;;;7.53;87.43;101992.09;5048443;28;20112;-65
2021/11/17 03:47:33;;;;;;;52.10;20.67;;;;;;;7.52;87.12;101998.13;5042852;28;20032;-65
2021/11/17 03:50:16;;;;;;;47.08;20.92;;;;;;;7.55;87.39;101995.63;5037609;28;20037;-65
2021/11/17 03:52:48;;;;;;;50.83;21.05;;;;;;;7.56;87.52;101986.03;5046594;28;20067;-65
2021/11/17 03:55:17;;;;;;;53.08;22.40;;;;;;;7.55;86.98;101990.41;5045654;28;20113;-65
2021/11/17 03:58:04;;;;;;;51.00;21.92;;;;;;;7.57;87.36;101985.22;5044896;28;20071;-65
2021/11/17 04:00:32;;;;;;;55.30;22.67;;;;;;;7.58;86.76;101985.25;5039996;28;20025;-65
2021/11/17 04:03:11;;;;;;;50.78;21.73;;;;;;;7.68;86.86;101988.16;5046507;28;20088;-66
2021/11/17 04:05:43;;;;;;;49.77;20.50;;;;;;;7.66;86.53;101982.88;5045471;28;20041;-65
2021/11/17 04:08:43;;;;;;;50.17;20.85;;;;;;;7.65;87.29;101986.31;5043907;28;20363;-64
2021/11/17 04:11:30;;;;;;;50.33;21.27;;;;;;;7.59;87.56;101988.75;5042876;28;20033;-64
2021/11/17 04:14:20;;;;;;;51.92;21.92;;;;;;;7.59;87.72;101999.22;5043612;28;20056;-64
2021/11/17 04:17:10;;;;;;;54.33;21.73;;;;;;;7.59;88.03;101987.03;5042928;28;20026;-64
2021/11/17 04:20:10;;;;;;;58.58;23.00;;;;;;;7.58;88.13;101982.66;5042362;28;20041;-65
2021/11/17 04:22:57;;;;;;;50.30;21.45;;;;;;;7.61;87.98;101980.09;5043959;28;20117;-64
2021/11/17 04:25:52;;;;;;;55.55;21.42;;;;;;;7.61;87.86;101977.50;5042858;28;20050;-64
2021/11/17 04:28:39;;;;;;;51.88;20.77;;;;;;;7.65;87.90;101985.44;5002735;28;20069;-65
2021/11/17 04:31:23;;;;;;;51.92;21.13;;;;;;;7.65;88.02;101985.44;5043874;28;20045;-64
2021/11/17 04:34:01;;;;;;;51.47;21.15;;;;;;;7.68;88.29;101985.53;5043154;28;20029;-64
2021/11/17 04:36:48;;;;;;;53.67;21.85;;;;;;;7.70;88.18;101989.06;5042056;28;20040;-65
2021/11/17 04:39:26;;;;;;;55.80;22.00;;;;;;;7.74;87.90;101997.03;5040625;28;20040;-64
2021/11/17 04:42:19;;;;;;;54.25;22.80;;;;;;;7.72;88.06;101988.25;5043139;28;20041;-64
2021/11/17 04:44:47;;;;;;;57.00;23.50;;;;;;;7.72;88.28;102001.34;5036682;28;20040;-65
2021/11/17 04:47:25;;;;;;;57.92;23.88;;;;;;;7.75;88.32;101990.97;5044387;28;20041;-65
2021/11/17 04:50:00;;;;;;;55.97;22.40;;;;;;;7.77;88.22;101989.28;5044460;28;20037;-64
2021/11/17 04:52:32;;;;;;;53.47;21.83;;;;;;;7.79;88.30;101992.84;5045581;28;20049;-64
2021/11/17 04:55:25;;;;;;;58.00;24.50;;;;;;;7.79;88.17;101990.22;5044834;28;20469;-64
2021/11/17 04:58:27;;;;;;;58.03;23.42;;;;;;;7.79;88.52;101982.38;5043841;28;20044;-64
2021/11/17 05:00:55;;;;;;;58.15;23.08;;;;;;;7.87;88.52;101990.44;5041162;28;20033;-65
2021/11/17 05:03:29;;;;;;;61.78;23.08;;;;;;;7.88;88.32;101994.84;5045353;28;20067;-64
2021/11/17 05:06:03;;;;;;;57.17;25.30;;;;;;;7.90;88.13;101989.63;5042670;28;20032;-64
2021/11/17 05:08:43;;;;;;;57.50;23.70;;;;;;;7.91;88.57;101989.66;5045759;28;20063;-65
2021/11/17 05:11:27;;;;;;;64.05;25.38;;;;;;;7.90;88.18;101984.38;5044901;28;20400;-64
2021/11/17 05:14:13;;;;;;;56.67;24.83;;;;;;;7.96;88.17;101984.56;5045208;28;20034;-64
2021/11/17 05:16:48;;;;;;;59.88;26.35;;;;;;;7.93;88.16;101989.72;5045046;28;20056;-64
2021/11/17 05:19:19;;;;;;;65.10;26.02;;;;;;;7.92;88.96;101988.84;5040248;28;20068;-64
2021/11/17 05:21:57;;;;;;;58.33;24.20;;;;;;;7.98;88.71;101993.34;5044406;28;20070;-65
2021/11/17 05:25:03;;;;;;;60.78;25.13;;;;;;;8.00;89.03;101996.91;5036960;28;20033;-64
2021/11/17 05:27:53;;;;;;;62.78;26.02;;;;;;;7.99;88.99;101993.38;5042105;28;20507;-64
2021/11/17 05:30:43;;;;;;;62.08;25.85;;;;;;;8.04;89.04;101996.13;5043929;28;20037;-64
2021/11/17 05:33:26;;;;;;;63.10;25.27;;;;;;;8.05;88.66;101997.00;5044931;28;20030;-65
2021/11/17 05:36:03;;;;;;;61.50;24.67;;;;;;;8.08;88.68;101997.97;5043053;28;20592;-64
2021/11/17 05:38:37;;;;;;;65.80;25.27;;;;;;;8.11;88.92;101994.53;5042436;28;20040;-64
2021/11/17 05:41:12;;;;;;;59.22;24.92;;;;;;;8.12;88.98;101991.97;5043036;28;20038;-65
2021/11/17 05:43:56;;;;;;;58.22;24.13;;;;;;;8.17;88.79;101995.59;5043874;28;20105;-64
2021/11/17 05:46:30;;;;;;;63.90;25.83;;;;;;;8.15;88.83;101997.31;5043198;28;20040;-65
2021/11/17 05:49:19;;;;;;;63.28;25.95;;;;;;;8.12;89.25;101999.81;5042204;28;20055;-65
2021/11/17 05:52:09;;;;;;;67.32;25.80;;;;;;;8.14;89.60;101999.88;5042825;28;20029;-65
2021/11/17 05:54:44;;;;;;;68.53;25.80;;;;;;;8.15;89.57;101999.03;5042452;28;20171;-66
2021/11/17 05:57:25;;;;;;;75.50;26.63;;;;;;;8.15;89.75;101992.06;5043580;28;20025;-64
2021/11/17 05:59:53;;;;;;;61.33;25.45;;;;;;;8.16;89.54;101996.44;5041947;28;20536;-65
2021/11/17 06:02:41;;;;;;;71.68;27.20;;;;;;;8.15;90.10;101992.06;5044523;28;20040;-66
2021/11/17 06:05:06;;;;;;;65.97;26.33;;;;;;;8.23;89.64;101991.41;5037728;28;20036;-65
2021/11/17 06:07:31;;;;;;;67.57;26.60;;;;;;;8.22;89.89;101989.59;5042570;28;20030;-66
2021/11/17 06:10:12;;;;;;;65.40;26.42;;;;;;;8.25;90.07;101997.56;5042041;28;20045;-65
2021/11/17 06:12:38;;;;;;;71.68;25.65;;;;;;;8.23;90.22;101994.00;5043666;28;20643;-65
2021/11/17 06:15:05;;;;;;;67.85;25.65;;;;;;;8.23;90.52;101989.66;5041154;28;20042;-65
2021/11/17 06:17:31;;;;;;;67.47;26.98;;;;;;;8.26;90.28;101996.69;5044411;28;20037;-65
2021/11/17 06:19:57;;;;;;;71.47;26.77;;;;;;;8.27;90.74;101995.84;5033157;28;20060;-65
2021/11/17 06:22:26;;;;;;;69.60;26.65;;;;;;;8.28;91.12;101993.28;5036632;28;20029;-65
2021/11/17 06:24:53;;;;;;;63.63;26.48;;;;;;;8.29;90.93;102002.03;5034782;28;20080;-65
2021/11/17 06:27:24;;;;;;;64.50;26.60;;;;;;;8.35;90.96;101995.19;5039218;28;20065;-65
2021/11/17 06:29:50;;;;;;;68.35;27.58;;;;;;;8.37;90.78;101997.84;5037438;28;20105;-65
2021/11/17 06:32:17;;;;;;;76.07;28.27;;;;;;;8.34;91.13;102008.28;5039275;28;20044;-65
2021/11/17 06:34:46;;;;;;;67.03;26.63;;;;;;;8.34;91.33;102008.28;5042145;28;20030;-65
2021/11/17 06:37:14;;;;;;;72.10;27.35;;;;;;;8.42;91.51;102009.38;5041548;28;20038;-65
2021/11/17 06:39:43;;;;;;;74.63;27.85;;;;;;;8.43;91.54;102007.63;5040489;28;20017;-60
2021/11/17 06:42:12;;;;;;;66.63;27.45;;;;;;;8.42;91.62;102009.38;5042071;28;20033;-61
2021/11/17 06:44:40;;;;;;;72.43;28.10;;;;;;;8.43;91.67;102005.03;5041811;28;20022;-62
2021/11/17 06:47:06;;;;;;;71.20;27.15;;;;;;;8.42;92.08;102014.63;5041890;28;20029;-62
2021/11/17 06:49:31;;;;;;;71.13;27.25;;;;;;;8.45;91.90;102026.91;5042396;28;20029;-62
2021/11/17 06:51:57;;;;;;;72.07;29.58;;;;;;;8.47;91.92;102027.81;5041149;28;20044;-60
2021/11/17 06:54:22;;;;;;;74.07;28.05;;;;;;;8.50;92.43;102026.16;5042497;28;20025;-59
2021/11/17 06:56:48;;;;;;;67.68;26.23;;;;;;;8.49;92.09;102024.41;5036000;28;20076;-60
2021/11/17 06:59:13;;;;;;;70.20;27.58;;;;;;;8.52;92.38;102027.09;5042440;28;20048;-63
2021/11/17 07:01:39;;;;;;;69.28;28.23;;;;;;;8.54;92.46;102030.66;5040175;28;20037;-61
2021/11/17 07:04:04;;;;;;;69.07;26.77;;;;;;;8.55;92.39;102034.16;5041138;28;20045;-62
2021/11/17 07:06:30;;;;;;;75.65;27.92;;;;;;;8.56;92.52;102031.59;5042800;28;20206;-62
2021/11/17 07:08:55;;;;;;;71.95;26.73;;;;;;;8.54;92.36;102035.91;5042233;28;20056;-62
2021/11/17 07:11:21;;;;;;;77.57;28.42;;;;;;;8.54;92.79;102042.84;5043445;28;20033;-62
2021/11/17 07:13:46;;;;;;;75.38;28.23;;;;;;;8.53;92.69;102038.47;5042310;28;20025;-62
2021/11/17 07:16:12;;;;;;;73.90;27.50;;;;;;;8.53;92.80;102041.97;5042391;28;20101;-61
2021/11/17 07:18:38;;;;;;;74.03;27.92;;;;;;;8.56;93.34;102036.84;5043437;28;20025;-61
2021/11/17 07:21:05;;;;;;;69.32;28.17;;;;;;;8.58;92.85;102044.69;5042209;28;20057;-62
2021/11/17 07:23:31;;;;;;;71.20;27.42;;;;;;;8.64;93.34;102043.97;5042352;28;20056;-61
2021/11/17 07:25:56;;;;;;;65.68;27.02;;;;;;;8.66;93.07;102043.19;5042608;28;20505;-61
2021/11/17 07:28:21;;;;;;;56.22;22.50;;;;;;;8.89;93.33;102056.84;5043305;28;20091;-61
2021/11/17 07:30:47;;;;;;;63.05;25.80;;;;;;;9.06;93.45;102056.38;5040092;28;20049;-61
2021/11/17 07:33:13;;;;;;;63.42;25.95;;;;;;;9.12;91.62;102061.78;5042404;28;20048;-62
2021/11/17 07:35:42;;;;;;;55.22;25.00;;;;;;;9.11;91.51;102057.38;5042582;28;20039;-61
2021/11/17 07:38:10;;;;;;;63.05;26.60;;;;;;;9.08;91.51;102046.81;5043271;28;20278;-62
2021/11/17 07:40:40;;;;;;;57.72;24.85;;;;;;;9.06;92.30;102054.66;5040721;28;20018;-63
2021/11/17 07:43:09;;;;;;;58.90;25.55;;;;;;;9.08;92.49;102062.56;5043236;28;20362;-61
2021/11/17 07:45:36;;;;;;;56.83;24.52;;;;;;;9.07;92.20;102061.66;5042051;28;20030;-61
2021/11/17 07:48:02;;;;;;;58.05;25.05;;;;;;;9.10;92.46;102072.22;5041607;28;20030;-61
2021/11/17 07:50:27;;;;;;;60.22;25.65;;;;;;;9.14;92.52;102071.44;5041951;28;20034;-61
2021/11/17 07:52:53;;;;;;;61.97;26.30;;;;;;;9.17;92.52;102078.50;5040791;28;20380;-61
2021/11/17 07:55:19;;;;;;;69.55;26.00;;;;;;;9.22;92.52;102081.22;5042766;28;20018;-61
2021/11/17 07:57:48;;;;;;;66.22;25.80;;;;;;;9.25;92.82;102082.19;5044890;28;20033;-61
2021/11/17 08:00:17;;;;;;;59.70;25.50;;;;;;;9.28;92.11;102090.16;5040782;28;20029;-61
2021/11/17 08:02:43;;;;;;;60.05;26.70;;;;;;;9.29;92.17;102085.78;5045905;28;20283;-62
2021/11/17 08:05:09;;;;;;;61.40;25.10;;;;;;;9.30;92.35;102095.41;5049314;28;20025;-64
2021/11/17 08:07:36;;;;;;;58.38;23.80;;;;;;;9.29;92.37;102091.91;5044410;28;20041;-61
2021/11/17 08:10:05;;;;;;;58.58;24.25;;;;;;;9.30;91.88;102085.81;5045909;28;20072;-62
2021/11/17 08:12:31;;;;;;;56.08;23.98;;;;;;;9.31;92.65;102095.44;5042067;28;20095;-61
2021/11/17 08:14:57;;;;;;;58.30;24.30;;;;;;;9.35;92.51;102096.41;5043154;28;20041;-62
2021/11/17 08:17:22;;;;;;;60.75;25.25;;;;;;;9.38;92.45;102100.84;5044036;28;20710;-63
2021/11/17 08:19:48;;;;;;;55.75;24.58;;;;;;;9.39;92.14;102100.88;5045659;28;20415;-62
2021/11/17 08:22:16;;;;;;;64.13;25.05;;;;;;;9.37;91.66;102099.94;5045393;28;20112;-63
2021/11/17 08:24:42;;;;;;;59.00;24.70;;;;;;;9.40;92.25;102097.41;5045146;28;20045;-63
2021/11/17 08:27:13;;;;;;;60.55;24.77;;;;;;;9.42;92.04;102106.19;5043429;28;20025;-63
2021/11/17 08:29:39;;;;;;;65.43;26.70;;;;;;;9.43;92.29;102107.06;5043433;28;20045;-63
2021/11/17 08:32:06;;;;;;;62.78;24.95;;;;;;;9.43;92.36;102107.94;5044732;28;20377;-62
2021/11/17 08:34:31;;;;;;;66.30;25.88;;;;;;;9.46;92.41;102104.53;5046913;28;20048;-63
2021/11/17 08:36:56;;;;;;;57.40;23.92;;;;;;;9.53;92.47;102111.69;5041680;28;20033;-64
2021/11/17 08:39:24;;;;;;;55.58;24.60;;;;;;;9.59;92.24;102110.94;5042839;28;20033;-61
2021/11/17 08:41:50;;;;;;;55.08;23.50;;;;;;;9.57;92.02;102117.03;5044666;28;20076;-61
2021/11/17 08:44:15;;;;;;;59.40;25.38;;;;;;;9.59;92.23;102127.56;5043468;28;20710;-61
2021/11/17 08:46:40;;;;;;;48.45;22.13;;;;;;;9.62;92.40;102122.41;5043853;28;20033;-61
2021/11/17 08:49:06;;;;;;;53.40;22.70;;;;;;;9.66;92.17;102120.72;5042900;28;20033;-61
2021/11/17 08:51:32;;;;;;;46.70;21.67;;;;;;;9.73;92.35;102122.63;5043893;28;20136;-61
2021/11/17 08:54:01;;;;;;;30.83;13.85;;;;;;;9.94;92.47;102123.13;5033599;28;20017;-61
2021/11/17 08:56:29;;;;;;;31.67;12.60;;;;;;;10.08;91.14;102125.13;5043558;28;20037;-61
2021/11/17 08:58:54;;;;;;;31.63;13.23;;;;;;;10.19;91.34;102122.72;5040690;28;20032;-60
2021/11/17 09:01:20;;;;;;;22.75;10.80;;;;;;;10.32;90.94;102138.81;5044577;28;20037;-61
2021/11/17 09:03:46;;;;;;;20.67;8.32;;;;;;;10.48;89.80;102137.34;5044504;28;20116;-61
2021/11/17 09:06:13;;;;;;;14.30;4.40;;;;;;;10.62;89.11;102137.59;5041494;28;20057;-61
2021/11/17 09:08:39;;;;;;;11.05;4.72;;;;;;;10.83;87.63;102137.16;5043025;28;20049;-61
2021/11/17 09:11:09;;;;;;;13.00;3.80;;;;;;;10.95;86.03;102135.59;5039432;28;20038;-62
2021/11/17 09:13:36;;;;;;;11.38;4.07;;;;;;;11.01;86.01;102138.31;5041635;28;20113;-63
2021/11/17 09:16:02;;;;;;;11.30;3.83;;;;;;;11.02;85.45;102138.34;5044214;28;20025;-63
2021/11/17 09:18:31;;;;;;;8.80;3.55;;;;;;;11.10;84.91;102133.22;5034134;28;21273;-62
2021/11/17 09:20:58;;;;;;;9.23;3.97;;;;;;;11.23;84.16;102137.81;5041202;28;20074;-62
2021/11/17 09:23:26;;;;;;;11.07;3.65;;;;;;;11.37;83.41;102140.66;5042395;28;20053;-62
2021/11/17 09:25:53;;;;;;;9.88;3.17;;;;;;;11.55;83.11;102150.59;5038895;28;20058;-62
2021/11/17 09:28:19;;;;;;;12.98;3.67;;;;;;;11.58;82.48;102141.84;5042047;28;20079;-61
2021/11/17 09:30:45;;;;;;;15.52;3.60;;;;;;;11.54;82.41;102148.81;5044526;28;20035;-62
2021/11/17 09:33:14;;;;;;;11.13;3.75;;;;;;;11.62;82.17;102149.81;5044864;28;20057;-62
2021/11/17 09:35:43;;;;;;;13.45;3.60;;;;;;;11.58;82.20;102153.25;5040134;28;20034;-60
2021/11/17 09:38:10;;;;;;;12.65;3.30;;;;;;;11.63;82.45;102156.88;5041513;28;20040;-62
2021/11/17 09:40:48;;;;;;;15.40;3.60;;;;;;;11.71;81.63;102159.59;5042519;28;20075;-63
2021/11/17 09:43:17;;;;;;;10.73;3.15;;;;;;;11.81;79.99;102168.50;5039765;28;20029;-62
2021/11/17 09:45:45;;;;;;;11.70;3.20;;;;;;;11.78;80.58;102166.75;5044490;28;20036;-63
2021/11/17 09:48:14;;;;;;;9.45;3.33;;;;;;;11.94;80.12;102170.50;5041966;28;20041;-63
2021/11/17 09:50:52;;;;;;;13.25;3.17;;;;;;;12.04;78.83;102175.03;5041371;28;20033;-63
2021/11/17 09:53:35;;;;;;;11.90;2.78;;;;;;;12.05;78.31;102178.56;5043873;28;20025;-62
2021/11/17 09:56:06;;;;;;;12.50;3.03;;;;;;;12.05;78.94;102189.97;5039414;28;20038;-62
2021/11/17 09:58:39;;;;;;;11.38;3.00;;;;;;;12.00;79.08;102189.03;5040182;28;20048;-62
2021/11/17 10:01:26;;;;;;;11.25;3.40;;;;;;;12.18;78.48;102192.78;5044581;28;20540;-62
2021/11/17 10:04:02;;;;;;;11.93;2.75;;;;;;;12.16;76.81;102194.50;5042289;28;20029;-63
2021/11/17 10:06:50;;;;;;;12.57;2.65;;;;;;;12.11;75.23;102189.16;5042253;28;20036;-61
2021/11/17 10:09:45;;;;;;;14.10;2.95;;;;;;;12.07;74.82;102195.25;5044839;28;20040;-63
2021/11/17 10:15:02;;;;;;;18.02;3.08;;;;;;;11.97;75.45;102191.63;5043801;28;20049;-63
2021/11/17 10:17:57;;;;;;;15.30;2.90;;;;;;;12.00;76.29;102201.31;5041698;28;20100;-63
2021/11/17 10:20:26;;;;;;;17.58;2.92;;;;;;;12.06;74.24;102199.66;5038694;28;20041;-63
2021/11/17 10:23:07;;;;;;;18.85;3.30;;;;;;;12.03;76.01;102201.34;5043649;28;20040;-63
2021/11/17 10:25:41;;;;;;;17.80;3.67;;;;;;;11.96;76.48;102203.00;5043874;28;20057;-63
2021/11/17 10:28:06;;;;;;;18.80;3.25;;;;;;;12.03;76.50;102215.41;5043422;28;20067;-62
2021/11/17 10:30:55;;;;;;;14.15;3.25;;;;;;;12.11;74.25;102212.00;5038190;28;20045;-63
2021/11/17 10:33:42;;;;;;;24.17;3.50;;;;;;;11.88;73.68;102218.66;5034563;28;20026;-63
2021/11/17 10:36:23;;;;;;;13.25;2.60;;;;;;;11.96;71.91;102213.53;5040360;28;20185;-63
2021/11/17 10:38:53;;;;;;;17.20;2.97;;;;;;;11.97;72.08;102215.34;5039627;28;20033;-63
2021/11/17 10:41:29;;;;;;;14.43;3.03;;;;;;;12.10;74.22;102211.13;5040845;28;20029;-63
2021/11/17 10:44:05;;;;;;;16.77;3.42;;;;;;;12.17;71.23;102220.84;5042401;28;20113;-63
2021/11/17 10:46:37;;;;;;;15.32;2.85;;;;;;;12.09;71.59;102222.50;5038715;28;20044;-63
2021/11/17 10:49:05;;;;;;;15.05;3.00;;;;;;;12.07;69.37;102229.50;5037174;28;20534;-63
2021/11/17 10:51:35;;;;;;;16.73;3.17;;;;;;;12.12;70.10;102234.84;5042467;28;20057;-64
2021/11/17 10:54:07;;;;;;;22.48;4.18;;;;;;;12.19;69.96;102223.53;5040648;28;20075;-64
2021/11/17 10:56:33;;;;;;;23.83;3.63;;;;;;;12.17;69.64;102227.88;5038185;28;20018;-63
2021/11/17 10:59:03;;;;;;;17.13;3.28;;;;;;;12.10;69.87;102226.94;5039614;28;20037;-63
2021/11/17 11:01:45;;;;;;;14.75;2.83;;;;;;;12.10;70.44;102232.19;5041666;28;20028;-62
2021/11/17 11:04:18;;;;;;;18.52;3.13;;;;;;;12.17;69.19;102219.97;5038800;28;20021;-63
2021/11/17 11:06:53;;;;;;;19.95;2.88;;;;;;;12.26;69.97;102223.63;5042555;28;20030;-62
2021/11/17 11:09:25;;;;;;;17.30;2.70;;;;;;;12.33;68.17;102226.38;5041465;28;20108;-62
2021/11/17 11:11:53;;;;;;;13.50;2.80;;;;;;;12.46;68.38;102223.03;5040912;28;20041;-62
2021/11/17 11:14:39;;;;;;;16.30;2.60;;;;;;;12.56;70.56;102222.25;5040442;28;20022;-62
2021/11/17 11:17:22;;;;;;;19.92;2.92;;;;;;;12.75;70.02;102225.97;5039336;28;20039;-62
2021/11/17 11:19:49;;;;;;;13.70;3.40;;;;;;;12.74;69.90;102218.97;5026367;28;20107;-62
2021/11/17 11:22:20;;;;;;;15.63;2.55;;;;;;;12.73;68.79;102226.84;5041199;28;20029;-62
2021/11/17 11:24:50;;;;;;;11.80;2.72;;;;;;;12.77;69.23;102221.63;5041463;28;20041;-63
2021/11/17 11:27:26;;;;;;;12.32;3.33;;;;;;;12.70;69.21;102219.75;5038101;28;20444;-63
2021/11/17 11:30:03;;;;;;;19.77;3.00;;;;;;;12.59;70.05;102222.31;5045996;28;20100;-63
2021/11/17 11:32:29;;;;;;;13.52;3.50;;;;;;;12.47;71.02;102223.00;5046068;28;20025;-63
2021/11/17 11:35:00;;;;;;;15.43;2.78;;;;;;;12.39;69.06;102224.69;5046581;28;20034;-63
2021/11/17 11:37:25;;;;;;;14.57;2.92;;;;;;;12.42;69.50;102222.09;5040318;28;20049;-63
2021/11/17 11:40:01;;;;;;;12.48;3.10;;;;;;;12.46;69.21;102229.16;5040395;28;21089;-63
2021/11/17 11:45:51;;;;;;;11.20;3.83;;;;;;;12.43;69.50;102236.16;5038606;28;20124;-62
2021/11/17 11:48:26;;;;;;;15.80;3.53;;;;;;;12.51;70.52;102230.97;5045546;28;20104;-62
2021/11/17 11:51:21;;;;;;;10.23;2.83;;;;;;;12.63;69.44;102233.78;5044891;28;20051;-62
2021/11/17 11:53:55;;;;;;;14.52;3.10;;;;;;;12.48;68.57;102239.75;5024274;28;20482;-62
2021/11/17 11:56:35;;;;;;;14.95;2.95;;;;;;;12.32;68.44;102248.31;5022884;28;20044;-62
2021/11/17 11:59:04;;;;;;;;;;;;;;;12.27;70.27;102248.25;5004358;28;20817;-61
2021/11/17 12:01:30;;;;;;;20.23;3.78;;;;;;;12.24;70.30;102250.84;5020611;28;19924;-61
2021/11/17 12:04:05;;;;;;;17.33;2.83;;;;;;;12.18;70.45;102241.09;5018135;28;20038;-61
2021/11/17 12:06:36;;;;;;;10.15;2.90;;;;;;;12.18;71.41;102254.25;5024062;28;20076;-62
2021/11/17 12:09:17;;;;;;;13.15;3.00;;;;;;;12.16;70.64;102248.09;5023222;28;20494;-62
2021/11/17 12:11:57;;;;;;;16.85;3.38;;;;;;;12.27;68.43;102251.75;5022501;28;20173;-62
2021/11/17 12:14:31;;;;;;;21.02;4.00;;;;;;;12.29;70.58;102259.69;5021364;28;20061;-62
2021/11/17 12:17:01;;;;;;;17.60;3.88;;;;;;;12.42;69.89;102255.44;5023694;28;20072;-61
2021/11/17 12:19:26;;;;;;;14.27;2.72;;;;;;;12.46;67.52;102254.66;5022256;28;20116;-62
2021/11/17 12:21:58;;;;;;;11.93;2.53;;;;;;;12.52;69.14;102261.75;5024039;28;20539;-62
2021/11/17 12:24:28;;;;;;;13.77;2.60;;;;;;;12.51;68.54;102267.88;5018466;28;20069;-62
2021/11/17 12:27:05;;;;;;;11.93;2.75;;;;;;;12.53;70.09;102271.41;5019905;28;20033;-62
2021/11/17 12:29:41;;;;;;;14.80;3.45;;;;;;;12.60;68.81;102278.53;5018804;28;20056;-62
2021/11/17 12:32:30;;;;;;;15.18;2.95;;;;;;;12.73;70.05;102271.69;5045498;28;20036;-62
2021/11/17 12:35:23;;;;;;;16.57;3.67;;;;;;;12.74;69.81;102263.78;5038432;28;20033;-62
2021/11/17 12:38:00;;;;;;;23.45;3.47;;;;;;;12.71;67.74;102273.41;5042111;28;20330;-61
2021/11/17 12:40:52;;;;;;;13.45;2.60;;;;;;;12.62;67.69;102272.41;5036362;28;20140;-62
2021/11/17 12:43:34;;;;;;;24.73;7.30;;;;;;;12.40;67.52;102275.63;5038547;28;20033;-62
2021/11/17 12:46:24;;;;;;;19.20;3.10;;;;;;;12.32;67.32;102272.91;5039391;28;20055;-62
2021/11/17 12:49:04;;;;;;;10.98;2.70;;;;;;;12.25;68.72;102271.94;5045383;28;20032;-62
2021/11/17 12:51:33;;;;;;;15.55;3.22;;;;;;;12.30;67.96;102272.00;5044593;28;20034;-62
2021/11/17 12:54:05;;;;;;;14.75;3.15;;;;;;;12.23;68.66;102273.69;5037735;28;20051;-62
2021/11/17 12:56:45;;;;;;;24.70;3.00;;;;;;;12.06;68.78;102283.06;5045149;28;20032;-62
2021/11/17 12:59:27;;;;;;;;;;;;;;;12.01;69.00;102285.63;5042519;28;20037;-62
2021/11/17 13:02:00;;;;;;;16.05;2.80;;;;;;;12.06;68.74;102291.88;5043837;28;19933;-62
2021/11/17 13:04:38;;;;;;;21.77;3.00;;;;;;;12.01;67.83;102285.63;5042045;28;20040;-61
2021/11/17 13:07:07;;;;;;;17.15;2.88;;;;;;;11.92;67.39;102296.03;5044312;28;20092;-61
2021/11/17 13:09:55;;;;;;;19.50;3.38;;;;;;;11.89;69.46;102294.25;5037691;28;20033;-62
2021/11/17 13:12:26;;;;;;;15.60;2.83;;;;;;;11.89;69.58;102298.59;5036991;28;20022;-61
2021/11/17 13:15:08;;;;;;;15.02;2.95;;;;;;;11.86;67.78;102306.44;5040009;28;20639;-61
2021/11/17 13:17:44;;;;;;;18.92;3.03;;;;;;;11.75;68.08;102308.88;5044802;28;20093;-65
2021/11/17 13:20:12;;;;;;;12.10;2.75;;;;;;;11.73;68.31;102309.72;5041569;28;20037;-63
2021/11/17 13:22:40;;;;;;;16.42;3.00;;;;;;;11.75;65.65;102310.63;5041354;28;20056;-63
2021/11/17 13:25:23;;;;;;;16.67;3.22;;;;;;;11.68;66.91;102314.91;5043011;28;20171;-63
2021/11/17 13:27:58;;;;;;;19.83;2.85;;;;;;;11.60;67.78;102298.09;5042583;28;20033;-64
2021/11/17 13:30:34;;;;;;;13.13;2.53;;;;;;;11.62;68.44;102301.63;5040056;28;20116;-63
2021/11/17 13:33:29;;;;;;;14.10;2.63;;;;;;;11.55;66.47;102294.47;5041310;28;20029;-63
2021/11/17 13:36:14;;;;;;;17.10;2.65;;;;;;;11.62;66.11;102289.34;5038842;28;20025;-62
2021/11/17 13:38:53;;;;;;;22.25;3.70;;;;;;;11.57;66.43;102295.38;5042289;28;20112;-61
2021/11/17 13:41:19;;;;;;;18.10;2.70;;;;;;;11.41;67.10;102292.50;5040859;28;20085;-63
2021/11/17 13:43:44;;;;;;;15.13;2.45;;;;;;;11.31;67.64;102290.56;5044052;28;20034;-62
2021/11/17 13:46:14;;;;;;;15.45;2.50;;;;;;;11.40;69.38;102308.25;5041670;28;20033;-62
2021/11/17 13:48:41;;;;;;;12.95;2.30;;;;;;;11.65;68.23;102306.97;5044028;28;20064;-63
2021/11/17 13:51:08;;;;;;;12.38;2.72;;;;;;;11.85;68.63;102307.28;5040879;28;20095;-61
2021/11/17 13:53:35;;;;;;;18.83;2.88;;;;;;;11.82;69.37;102301.97;5042854;28;20037;-62
2021/11/17 13:56:13;;;;;;;19.48;2.83;;;;;;;11.88;69.78;102297.69;5040716;28;20036;-62
2021/11/17 13:58:38;;;;;;;12.23;2.85;;;;;;;11.95;69.58;102298.72;5043878;28;20033;-62
2021/11/17 14:01:06;;;;;;;17.15;3.05;;;;;;;11.82;68.72;102309.88;5041162;28;20365;-62
2021/11/17 14:03:32;;;;;;;15.07;2.40;;;;;;;11.75;67.66;102313.25;5043068;28;20063;-63
2021/11/17 14:06:03;;;;;;;13.30;2.63;;;;;;;11.76;69.46;102321.19;5039994;28;20030;-62
2021/11/17 14:08:31;;;;;;;18.15;2.40;;;;;;;11.79;69.68;102321.22;5039255;28;20112;-63
2021/11/17 14:10:58;;;;;;;18.52;3.38;;;;;;;11.64;70.02;102319.22;5042886;28;20025;-62
2021/11/17 14:13:24;;;;;;;10.90;2.60;;;;;;;11.56;70.87;102333.13;5041002;28;20033;-62
2021/11/17 14:15:49;;;;;;;13.93;2.90;;;;;;;11.66;69.28;102335.03;5042019;28;20042;-61
2021/11/17 14:18:14;;;;;;;18.02;2.88;;;;;;;11.70;70.90;102331.59;5043431;28;20079;-63
2021/11/17 14:20:40;;;;;;;11.95;1.98;;;;;;;11.68;70.70;102333.31;5040301;28;20636;-64
2021/11/17 14:23:06;;;;;;;15.75;2.47;;;;;;;11.63;68.46;102327.13;5042798;28;20021;-65